Time;durP1;ratioP1;P1;durP2;ratioP2;P2;SDS_P1;SDS_P2;PMS_P1;PMS_P2;Temp;Humidity;BMP_temperature;BMP_pressure;BME280_temperature;BME280_humidity;BME280_pressure;Samples;Min_cycle;Max_cycle;Signal;HPM_P1;HPM_P2
2023/12/12 00:02:25;;;;;;;0.00;0.00;;;9.50;99.90;;;;;;5073971;28;20509;-73
2023/12/12 00:04:50;;;;;;;0.00;0.00;;;9.40;99.90;;;;;;5056095;28;20477;-73
2023/12/12 00:07:16;;;;;;;0.30;0.30;;;9.50;99.90;;;;;;5074361;28;20393;-73
2023/12/12 00:09:42;;;;;;;0.17;0.17;;;9.50;99.90;;;;;;5064641;28;20063;-74
2023/12/12 00:12:11;;;;;;;0.10;0.10;;;9.30;99.90;;;;;;5069452;28;20057;-73
2023/12/12 00:14:37;;;;;;;2.53;2.33;;;9.30;99.90;;;;;;5073871;28;20031;-73
2023/12/12 00:17:03;;;;;;;0.10;0.10;;;9.30;99.90;;;;;;5073730;28;20043;-73
2023/12/12 00:19:29;;;;;;;0.10;0.10;;;9.30;99.90;;;;;;5073465;28;20465;-74
2023/12/12 00:21:55;;;;;;;6.88;2.83;;;9.30;99.90;;;;;;5073835;28;20032;-73
2023/12/12 00:24:22;;;;;;;0.00;0.00;;;9.20;99.90;;;;;;5073474;28;20520;-74
2023/12/12 00:26:48;;;;;;;0.82;0.82;;;9.20;99.90;;;;;;5073918;28;20013;-73
2023/12/12 00:29:13;;;;;;;1.20;0.75;;;9.20;99.90;;;;;;5073484;28;20392;-74
2023/12/12 00:31:39;;;;;;;0.00;0.00;;;9.30;99.90;;;;;;5073538;28;20488;-74
2023/12/12 00:34:05;;;;;;;0.40;0.40;;;9.40;99.90;;;;;;5073681;28;20504;-73
2023/12/12 00:36:31;;;;;;;0.00;0.00;;;9.20;99.90;;;;;;5073402;28;20484;-74
2023/12/12 00:38:57;;;;;;;0.00;0.00;;;9.30;99.90;;;;;;5073518;28;20465;-74
2023/12/12 00:41:33;;;;;;;0.40;0.40;;;9.30;99.90;;;;;;5073617;28;20016;-74
2023/12/12 00:43:59;;;;;;;0.08;0.08;;;9.20;99.90;;;;;;5073040;28;20048;-74
2023/12/12 00:46:25;;;;;;;0.00;0.00;;;9.20;99.90;;;;;;5072834;28;20021;-74
2023/12/12 00:48:51;;;;;;;0.00;0.00;;;9.30;99.90;;;;;;5073371;28;20031;-73
2023/12/12 00:51:18;;;;;;;0.65;0.52;;;9.20;99.90;;;;;;5073238;28;20020;-73
2023/12/12 00:53:44;;;;;;;0.10;0.10;;;9.20;99.90;;;;;;5073018;28;20025;-74
2023/12/12 00:56:09;;;;;;;0.00;0.00;;;9.30;99.90;;;;;;5073387;28;20023;-74
2023/12/12 00:58:35;;;;;;;0.68;0.55;;;9.40;99.90;;;;;;5072819;28;20028;-74
2023/12/12 01:01:01;;;;;;;3.65;0.80;;;9.70;99.90;;;;;;5073377;28;20025;-74
2023/12/12 01:03:27;;;;;;;0.00;0.00;;;9.60;99.90;;;;;;5071627;28;20510;-73
2023/12/12 01:05:53;;;;;;;2.85;0.32;;;9.40;99.90;;;;;;5073009;28;20020;-73
2023/12/12 01:08:19;;;;;;;0.45;0.45;;;9.20;99.90;;;;;;5072798;28;20384;-73
2023/12/12 01:10:45;;;;;;;0.35;0.35;;;9.00;99.90;;;;;;5058910;28;20017;-73
2023/12/12 01:13:10;;;;;;;0.05;0.05;;;9.00;99.90;;;;;;5071611;28;20033;-73
2023/12/12 01:15:37;;;;;;;0.00;0.00;;;9.10;99.90;;;;;;5072758;28;20067;-73
2023/12/12 01:18:03;;;;;;;2.20;1.55;;;9.10;99.90;;;;;;5071890;28;20036;-74
2023/12/12 01:20:28;;;;;;;0.10;0.10;;;9.10;99.90;;;;;;5072651;28;20024;-73
2023/12/12 01:22:54;;;;;;;0.28;0.25;;;9.40;99.90;;;;;;5072934;28;20500;-73
2023/12/12 01:25:20;;;;;;;1.75;1.65;;;9.50;99.90;;;;;;5072798;28;20505;-73
2023/12/12 01:27:46;;;;;;;0.40;0.40;;;9.50;99.90;;;;;;5072372;28;20021;-73
2023/12/12 01:30:12;;;;;;;0.38;0.38;;;9.60;99.90;;;;;;5071472;28;20511;-74
2023/12/12 01:32:37;;;;;;;0.00;0.00;;;9.60;99.90;;;;;;5072633;28;20489;-73
2023/12/12 01:35:03;;;;;;;0.55;0.43;;;9.60;99.90;;;;;;5071368;28;20078;-73
2023/12/12 01:37:30;;;;;;;2.92;1.25;;;9.60;99.90;;;;;;5072777;28;20039;-73
2023/12/12 01:39:56;;;;;;;0.00;0.00;;;9.60;99.90;;;;;;5071711;28;20034;-73
2023/12/12 01:42:22;;;;;;;0.20;0.20;;;9.70;99.90;;;;;;5072451;28;20021;-73
2023/12/12 01:44:47;;;;;;;0.75;0.22;;;9.70;99.90;;;;;;5072363;28;20047;-73
2023/12/12 01:47:13;;;;;;;1.75;1.13;;;9.80;99.90;;;;;;5072656;28;20481;-73
2023/12/12 01:49:40;;;;;;;0.80;0.77;;;9.80;99.90;;;;;;5072330;28;20417;-73
2023/12/12 01:52:07;;;;;;;1.95;0.85;;;9.80;99.90;;;;;;5072704;28;20025;-73
2023/12/12 01:54:36;;;;;;;0.10;0.10;;;9.80;99.90;;;;;;5072350;28;20025;-73
2023/12/12 01:57:02;;;;;;;6.10;0.90;;;9.80;99.90;;;;;;5072991;28;20025;-73
2023/12/12 01:59:30;;;;;;;0.03;0.03;;;10.00;99.90;;;;;;5076571;28;20036;-73
2023/12/12 02:01:57;;;;;;;0.15;0.15;;;10.10;99.90;;;;;;5075139;28;20516;-73
2023/12/12 02:04:23;;;;;;;0.10;0.10;;;10.10;99.90;;;;;;5076411;28;20036;-73
2023/12/12 02:06:51;;;;;;;0.05;0.05;;;10.20;99.90;;;;;;5076227;28;20135;-73
2023/12/12 02:09:17;;;;;;;4.65;3.50;;;10.30;99.90;;;;;;5070737;28;20036;-73
2023/12/12 02:11:43;;;;;;;0.03;0.03;;;10.40;99.90;;;;;;5067727;28;20032;-73
2023/12/12 02:14:10;;;;;;;1.67;0.35;;;10.50;99.90;;;;;;5076185;28;20024;-74
2023/12/12 02:16:36;;;;;;;0.63;0.50;;;10.60;99.90;;;;;;5076135;28;20389;-73
2023/12/12 02:19:02;;;;;;;0.00;0.00;;;10.70;99.90;;;;;;5074996;28;20029;-73
2023/12/12 02:21:30;;;;;;;0.05;0.05;;;10.70;99.90;;;;;;5075425;28;20453;-74
2023/12/12 02:23:57;;;;;;;0.00;0.00;;;10.80;99.90;;;;;;5058611;28;20037;-74
2023/12/12 02:26:23;;;;;;;0.00;0.00;;;10.70;99.90;;;;;;5074197;28;20491;-73
2023/12/12 02:28:49;;;;;;;0.00;0.00;;;10.80;99.90;;;;;;5076198;28;20135;-74
2023/12/12 02:31:15;;;;;;;0.08;0.08;;;10.80;99.90;;;;;;5075764;28;20482;-73
2023/12/12 02:33:41;;;;;;;0.00;0.00;;;10.80;99.90;;;;;;5076028;28;20404;-73
2023/12/12 02:36:07;;;;;;;0.47;0.47;;;10.80;99.90;;;;;;5075868;28;20035;-73
2023/12/12 02:38:33;;;;;;;0.00;0.00;;;10.80;99.90;;;;;;5076088;28;20383;-74
2023/12/12 02:40:59;;;;;;;0.65;0.52;;;10.80;99.90;;;;;;5074455;28;20029;-73
2023/12/12 02:43:25;;;;;;;0.10;0.10;;;10.60;99.90;;;;;;5047795;28;20033;-73
2023/12/12 02:45:54;;;;;;;1.45;0.75;;;10.80;99.90;;;;;;5055516;28;20029;-73
2023/12/12 02:48:20;;;;;;;2.88;1.88;;;10.70;99.90;;;;;;5055407;28;20029;-73
2023/12/12 02:50:46;;;;;;;0.00;0.00;;;10.80;99.90;;;;;;5055620;28;20426;-73
2023/12/12 02:53:11;;;;;;;1.75;0.55;;;10.70;99.90;;;;;;5055464;28;20370;-73
2023/12/12 02:55:41;;;;;;;0.00;0.00;;;10.70;99.90;;;;;;5055301;28;20424;-73
2023/12/12 02:58:07;;;;;;;0.00;0.00;;;10.70;99.90;;;;;;5054292;28;20033;-74
2023/12/12 03:00:33;;;;;;;9.70;0.50;;;10.80;99.90;;;;;;5055252;28;20079;-73
2023/12/12 03:02:59;;;;;;;0.82;0.82;;;10.90;99.90;;;;;;5055445;28;20028;-73
2023/12/12 03:05:28;;;;;;;0.43;0.43;;;10.80;99.90;;;;;;5055159;28;20398;-73
2023/12/12 03:07:54;;;;;;;0.50;0.50;;;10.90;99.90;;;;;;5054898;28;20021;-74
2023/12/12 03:10:20;;;;;;;0.00;0.00;;;10.80;99.90;;;;;;5054967;28;20474;-73
2023/12/12 03:12:46;;;;;;;0.90;0.77;;;11.00;99.90;;;;;;5054087;28;20059;-73
2023/12/12 03:15:12;;;;;;;0.00;0.00;;;10.90;99.90;;;;;;5055608;28;20107;-73
2023/12/12 03:17:38;;;;;;;9.10;4.13;;;11.00;99.90;;;;;;5053516;28;20123;-73
2023/12/12 03:20:05;;;;;;;0.00;0.00;;;10.90;99.90;;;;;;5055287;28;20028;-73
2023/12/12 03:22:30;;;;;;;0.10;0.10;;;10.90;99.90;;;;;;5054908;28;20078;-73
2023/12/12 03:24:56;;;;;;;0.80;0.80;;;11.00;99.90;;;;;;5054783;28;20045;-73
2023/12/12 03:27:23;;;;;;;0.08;0.08;;;11.00;99.90;;;;;;5054895;28;20041;-73
2023/12/12 03:29:49;;;;;;;0.25;0.25;;;11.10;99.90;;;;;;5056419;28;20555;-73
2023/12/12 03:32:14;;;;;;;0.00;0.00;;;11.10;99.90;;;;;;5053683;28;20108;-74
2023/12/12 03:34:40;;;;;;;2.47;0.55;;;11.00;99.90;;;;;;5054621;28;20017;-73
2023/12/12 03:37:06;;;;;;;1.60;0.50;;;11.00;99.90;;;;;;5054719;28;20492;-74
2023/12/12 03:39:32;;;;;;;6.05;5.00;;;11.00;99.90;;;;;;5054423;28;20032;-74
2023/12/12 03:41:58;;;;;;;0.35;0.32;;;11.20;99.90;;;;;;5054823;28;20027;-74
2023/12/12 03:44:24;;;;;;;0.13;0.13;;;11.00;99.90;;;;;;5058344;28;20051;-73
2023/12/12 03:46:51;;;;;;;0.75;0.30;;;11.10;99.90;;;;;;5054341;28;20029;-74
2023/12/12 03:49:17;;;;;;;0.82;0.82;;;11.00;99.90;;;;;;5052552;28;20025;-74
2023/12/12 03:51:43;;;;;;;0.10;0.10;;;11.10;99.90;;;;;;5054054;28;20025;-74
2023/12/12 03:54:09;;;;;;;1.65;1.08;;;10.90;99.90;;;;;;5054140;28;20051;-73
2023/12/12 03:56:35;;;;;;;1.15;1.05;;;10.90;99.90;;;;;;5054219;28;20409;-73
2023/12/12 03:59:02;;;;;;;0.10;0.10;;;10.80;99.90;;;;;;5054359;28;20025;-73
2023/12/12 04:01:27;;;;;;;1.55;1.20;;;10.80;99.90;;;;;;5054434;28;20025;-73
2023/12/12 04:03:55;;;;;;;0.45;0.45;;;10.80;99.90;;;;;;5052553;28;20037;-74
2023/12/12 04:06:22;;;;;;;0.10;0.10;;;10.80;99.90;;;;;;5054342;28;20029;-73
2023/12/12 04:08:49;;;;;;;0.88;0.88;;;10.90;99.90;;;;;;5052483;28;20048;-73
2023/12/12 04:11:15;;;;;;;0.05;0.05;;;10.90;99.90;;;;;;5054284;28;20059;-73
2023/12/12 04:13:41;;;;;;;8.20;4.75;;;10.90;99.90;;;;;;5052354;28;20025;-73
2023/12/12 04:16:07;;;;;;;0.30;0.30;;;10.80;99.90;;;;;;5054160;28;20100;-73
2023/12/12 04:18:33;;;;;;;0.00;0.00;;;10.80;99.90;;;;;;5053926;28;20484;-73
2023/12/12 04:20:59;;;;;;;0.35;0.35;;;10.90;99.90;;;;;;5053222;28;20037;-74
2023/12/12 04:23:25;;;;;;;4.57;1.45;;;10.90;99.90;;;;;;5052629;28;20056;-73
2023/12/12 04:25:51;;;;;;;0.10;0.10;;;10.90;99.90;;;;;;5052359;28;20037;-73
2023/12/12 04:28:17;;;;;;;1.88;0.25;;;10.90;99.90;;;;;;5053916;28;20025;-74
2023/12/12 04:30:43;;;;;;;0.10;0.10;;;10.90;99.90;;;;;;5053774;28;20025;-73
2023/12/12 04:33:09;;;;;;;0.20;0.20;;;10.90;99.90;;;;;;5053694;28;20060;-73
2023/12/12 04:35:35;;;;;;;0.10;0.10;;;10.90;99.90;;;;;;5053565;28;20025;-73
2023/12/12 04:38:01;;;;;;;7.70;2.17;;;10.90;99.90;;;;;;5053462;28;20031;-73
2023/12/12 04:40:29;;;;;;;1.20;1.10;;;10.90;99.90;;;;;;5053444;28;20028;-73
2023/12/12 04:42:55;;;;;;;3.72;0.63;;;10.90;99.90;;;;;;5053396;28;20492;-73
2023/12/12 04:45:21;;;;;;;0.30;0.30;;;11.00;99.90;;;;;;5053635;28;20060;-73
2023/12/12 04:47:46;;;;;;;0.32;0.32;;;11.20;99.90;;;;;;5053459;28;20037;-73
2023/12/12 04:50:13;;;;;;;0.63;0.55;;;11.20;99.90;;;;;;5053419;28;20036;-73
2023/12/12 04:52:40;;;;;;;0.32;0.32;;;11.20;99.90;;;;;;5053215;28;20032;-73
2023/12/12 04:55:06;;;;;;;8.52;0.70;;;11.30;99.90;;;;;;5052191;28;20486;-73
2023/12/12 04:57:32;;;;;;;0.43;0.43;;;11.20;99.90;;;;;;5053199;28;20056;-74
2023/12/12 04:59:58;;;;;;;4.32;0.50;;;11.30;99.90;;;;;;5053026;28;20076;-73
2023/12/12 05:02:24;;;;;;;7.97;0.75;;;11.20;99.90;;;;;;5053332;28;20032;-74
2023/12/12 05:04:50;;;;;;;0.00;0.00;;;11.10;99.90;;;;;;5052771;28;20040;-74
2023/12/12 05:07:16;;;;;;;0.50;0.50;;;11.20;99.90;;;;;;5052898;28;20044;-74
2023/12/12 05:09:42;;;;;;;0.22;0.22;;;11.30;99.90;;;;;;5052827;28;20401;-73
2023/12/12 05:12:08;;;;;;;0.63;0.17;;;11.30;99.90;;;;;;5052721;28;20030;-74
2023/12/12 05:14:34;;;;;;;0.40;0.40;;;11.30;99.90;;;;;;5052840;28;20021;-74
2023/12/12 05:17:00;;;;;;;0.52;0.52;;;11.30;99.90;;;;;;5052570;28;20033;-73
2023/12/12 05:19:26;;;;;;;1.58;0.57;;;11.30;99.90;;;;;;5051299;28;20036;-74
2023/12/12 05:21:52;;;;;;;0.93;0.93;;;11.30;99.90;;;;;;5051605;28;20032;-74
2023/12/12 05:24:18;;;;;;;0.20;0.20;;;11.30;99.90;;;;;;5052431;28;20040;-74
2023/12/12 05:26:44;;;;;;;1.08;1.02;;;11.30;99.90;;;;;;5052778;28;20025;-74
2023/12/12 05:29:09;;;;;;;2.05;1.85;;;11.30;99.90;;;;;;5052593;28;20104;-74
2023/12/12 05:31:35;;;;;;;0.20;0.20;;;11.20;99.90;;;;;;5052600;28;20075;-74
2023/12/12 05:34:01;;;;;;;0.00;0.00;;;11.20;99.90;;;;;;5052278;28;20060;-74
2023/12/12 05:36:27;;;;;;;0.00;0.00;;;11.40;99.90;;;;;;5051263;28;20024;-74
2023/12/12 05:38:53;;;;;;;0.20;0.20;;;11.30;99.90;;;;;;5051330;28;20021;-74
2023/12/12 05:41:19;;;;;;;1.13;0.50;;;11.40;99.90;;;;;;5052433;28;20021;-74
2023/12/12 05:43:45;;;;;;;0.40;0.40;;;11.30;99.90;;;;;;5052371;28;20041;-74
2023/12/12 05:46:11;;;;;;;1.17;1.08;;;11.10;99.90;;;;;;5051270;28;20041;-74
2023/12/12 05:48:37;;;;;;;5.28;1.95;;;11.00;99.90;;;;;;5050987;28;20669;-74
2023/12/12 05:51:03;;;;;;;2.35;1.85;;;11.00;99.90;;;;;;5052354;28;20056;-73
2023/12/12 05:53:29;;;;;;;0.10;0.10;;;11.00;99.90;;;;;;5051124;28;20024;-74
2023/12/12 05:55:55;;;;;;;0.10;0.10;;;11.00;99.90;;;;;;5052351;28;20413;-74
2023/12/12 05:58:21;;;;;;;0.00;0.00;;;11.00;99.90;;;;;;5051936;28;20036;-74
2023/12/12 06:00:51;;;;;;;0.25;0.25;;;11.00;99.90;;;;;;5054114;28;20024;-73
2023/12/12 06:03:20;;;;;;;0.25;0.25;;;11.00;99.90;;;;;;5057136;28;20505;-73
2023/12/12 06:05:46;;;;;;;11.40;1.23;;;11.00;99.90;;;;;;5050399;28;20466;-73
2023/12/12 06:08:12;;;;;;;1.98;0.70;;;11.00;99.90;;;;;;5051334;28;20104;-73
2023/12/12 06:10:38;;;;;;;1.08;1.08;;;10.90;99.90;;;;;;5051985;28;20043;-74
2023/12/12 06:13:05;;;;;;;1.95;0.43;;;11.00;99.90;;;;;;5052191;28;20103;-74
2023/12/12 06:15:30;;;;;;;0.47;0.47;;;11.10;99.90;;;;;;5052034;28;20105;-74
2023/12/12 06:17:59;;;;;;;0.90;0.90;;;11.00;99.90;;;;;;5052029;28;20072;-73
2023/12/12 06:20:26;;;;;;;0.03;0.03;;;11.00;99.90;;;;;;5052061;28;20505;-73
2023/12/12 06:22:52;;;;;;;0.28;0.28;;;11.20;99.90;;;;;;5051916;28;20025;-73
2023/12/12 06:25:18;;;;;;;4.93;1.20;;;11.20;99.90;;;;;;5052194;28;20041;-73
2023/12/12 06:27:44;;;;;;;2.80;1.95;;;11.10;99.90;;;;;;5051939;28;20082;-73
2023/12/12 06:30:10;;;;;;;6.03;4.93;;;11.10;99.90;;;;;;5052100;28;20021;-73
2023/12/12 06:32:35;;;;;;;2.60;2.15;;;11.20;99.90;;;;;;5051572;28;20386;-73
2023/12/12 06:35:04;;;;;;;4.07;0.90;;;11.20;99.90;;;;;;5052067;28;20021;-73
2023/12/12 06:37:29;;;;;;;0.40;0.35;;;11.20;99.90;;;;;;5051714;28;20083;-73
2023/12/12 06:39:59;;;;;;;3.20;1.27;;;11.30;99.90;;;;;;5050743;28;20029;-73
2023/12/12 06:42:25;;;;;;;8.18;0.70;;;11.20;99.90;;;;;;5043235;28;20056;-73
2023/12/12 06:44:51;;;;;;;4.18;2.17;;;11.20;99.90;;;;;;5055609;28;20037;-73
2023/12/12 06:47:18;;;;;;;0.10;0.10;;;11.10;99.90;;;;;;5055513;28;20017;-73
2023/12/12 06:49:44;;;;;;;0.25;0.25;;;11.10;99.90;;;;;;5055492;28;20020;-73
2023/12/12 06:52:10;;;;;;;2.47;1.40;;;11.10;99.90;;;;;;5054288;28;20029;-73
2023/12/12 06:54:36;;;;;;;0.30;0.30;;;11.10;99.90;;;;;;5055566;28;20036;-73
2023/12/12 06:57:03;;;;;;;0.10;0.10;;;11.00;99.90;;;;;;5055500;28;20082;-73
2023/12/12 06:59:37;;;;;;;0.75;0.75;;;11.10;99.90;;;;;;5055682;28;20481;-73
2023/12/12 07:02:03;;;;;;;0.95;0.68;;;11.20;99.90;;;;;;5053911;28;20043;-73
2023/12/12 07:04:29;;;;;;;0.10;0.10;;;11.20;99.90;;;;;;5055357;28;20131;-74
2023/12/12 07:06:55;;;;;;;2.75;1.65;;;11.10;99.90;;;;;;5055135;28;20462;-73
2023/12/12 07:09:20;;;;;;;0.10;0.10;;;11.10;99.90;;;;;;5055320;28;20021;-73
2023/12/12 07:11:46;;;;;;;17.65;2.92;;;11.10;99.90;;;;;;5055255;28;20025;-73
2023/12/12 07:14:12;;;;;;;0.20;0.20;;;11.10;99.90;;;;;;5055282;28;20042;-73
2023/12/12 07:16:41;;;;;;;0.10;0.10;;;11.10;99.90;;;;;;5054838;28;20068;-73
2023/12/12 07:19:07;;;;;;;0.40;0.40;;;11.00;99.90;;;;;;5035738;28;20366;-73
2023/12/12 07:21:39;;;;;;;0.30;0.30;;;10.90;99.90;;;;;;5057770;28;20035;-73
2023/12/12 07:24:05;;;;;;;;;;;11.00;99.90;;;;;;5056246;28;20473;-73
2023/12/12 07:26:31;;;;;;;0.30;0.30;;;11.00;99.90;;;;;;5064706;28;19912;-73
2023/12/12 07:28:57;;;;;;;0.82;0.82;;;11.00;99.90;;;;;;5059850;28;20070;-73
2023/12/12 07:31:23;;;;;;;0.80;0.73;;;11.10;99.90;;;;;;5060896;28;20028;-74
2023/12/12 07:33:49;;;;;;;2.05;1.95;;;11.00;99.90;;;;;;5061135;28;20037;-74
2023/12/12 07:36:15;;;;;;;5.20;0.93;;;10.90;99.90;;;;;;5061719;28;20028;-74
2023/12/12 07:38:41;;;;;;;1.40;1.25;;;10.90;99.90;;;;;;5066401;28;20381;-74
2023/12/12 07:41:08;;;;;;;3.78;0.40;;;11.00;99.90;;;;;;5056370;28;20028;-74
2023/12/12 07:43:34;;;;;;;0.40;0.40;;;11.00;99.90;;;;;;5065695;28;20060;-74
2023/12/12 07:45:59;;;;;;;0.52;0.52;;;10.90;99.90;;;;;;5063371;28;20075;-74
2023/12/12 07:48:25;;;;;;;1.13;1.05;;;11.00;99.90;;;;;;5058446;28;20081;-74
2023/12/12 07:50:51;;;;;;;0.45;0.35;;;11.00;99.90;;;;;;5061872;28;20036;-73
2023/12/12 07:53:17;;;;;;;0.40;0.22;;;11.10;99.90;;;;;;5057354;28;20016;-73
2023/12/12 07:55:43;;;;;;;3.63;2.75;;;11.10;99.90;;;;;;5054238;28;20028;-74
2023/12/12 07:58:09;;;;;;;3.58;0.95;;;11.20;99.90;;;;;;5066019;28;20025;-73
2023/12/12 08:00:35;;;;;;;7.30;0.90;;;11.20;99.90;;;;;;5061339;28;20021;-72
2023/12/12 08:03:01;;;;;;;1.25;0.63;;;11.10;99.90;;;;;;5063705;28;20514;-73
2023/12/12 08:05:27;;;;;;;0.75;0.75;;;11.10;99.90;;;;;;5038464;28;20064;-74
2023/12/12 08:07:53;;;;;;;0.68;0.50;;;11.20;99.90;;;;;;5053603;28;20106;-72
2023/12/12 08:10:19;;;;;;;0.50;0.50;;;11.00;99.90;;;;;;5059047;28;20029;-73
2023/12/12 08:12:44;;;;;;;2.10;0.20;;;11.00;99.90;;;;;;5045601;28;20027;-72
2023/12/12 08:15:10;;;;;;;6.32;1.75;;;11.10;99.90;;;;;;5066851;28;20024;-73
2023/12/12 08:17:36;;;;;;;0.00;0.00;;;11.20;99.90;;;;;;5055810;28;20025;-73
2023/12/12 08:20:03;;;;;;;10.07;2.40;;;11.30;99.90;;;;;;5065068;28;20108;-73
2023/12/12 08:22:28;;;;;;;4.15;0.70;;;11.30;99.90;;;;;;5064725;28;20024;-73
2023/12/12 08:24:54;;;;;;;0.38;0.38;;;11.20;99.90;;;;;;5058306;28;20028;-75
2023/12/12 08:27:20;;;;;;;1.63;1.45;;;11.20;99.90;;;;;;5059363;28;20040;-75
2023/12/12 08:29:49;;;;;;;4.13;2.40;;;11.40;99.90;;;;;;5060784;28;20075;-75
2023/12/12 08:32:14;;;;;;;2.55;0.68;;;11.30;99.90;;;;;;5063858;28;20082;-74
2023/12/12 08:34:40;;;;;;;0.30;0.30;;;11.30;99.90;;;;;;5063257;28;20025;-74
2023/12/12 08:37:06;;;;;;;1.00;0.95;;;11.40;99.90;;;;;;5061671;28;20024;-74
2023/12/12 08:39:32;;;;;;;2.95;2.20;;;11.40;99.90;;;;;;5055958;28;20524;-74
2023/12/12 08:41:58;;;;;;;0.77;0.73;;;11.40;99.90;;;;;;5053407;28;20470;-74
2023/12/12 08:44:24;;;;;;;0.75;0.75;;;11.60;99.90;;;;;;5064263;28;20029;-74
2023/12/12 08:46:50;;;;;;;3.63;2.55;;;11.60;99.90;;;;;;5061666;28;20392;-74
2023/12/12 08:49:19;;;;;;;5.80;1.38;;;11.50;99.90;;;;;;5058034;28;20033;-74
2023/12/12 08:51:45;;;;;;;8.57;2.72;;;11.60;99.90;;;;;;5055000;28;20021;-74
2023/12/12 08:54:10;;;;;;;1.98;1.40;;;11.70;99.90;;;;;;5055322;28;20033;-74
2023/12/12 08:56:38;;;;;;;0.75;0.75;;;11.70;99.90;;;;;;5052643;28;20029;-75
2023/12/12 08:59:04;;;;;;;0.73;0.73;;;11.80;99.90;;;;;;5067605;28;20111;-73
2023/12/12 09:01:30;;;;;;;3.72;1.60;;;11.80;99.90;;;;;;5066549;28;20031;-74
2023/12/12 09:03:56;;;;;;;0.90;0.82;;;11.80;99.90;;;;;;5057921;28;20041;-74
2023/12/12 09:06:22;;;;;;;0.30;0.30;;;11.80;99.90;;;;;;5037163;28;20054;-73
2023/12/12 09:08:48;;;;;;;3.38;1.13;;;11.80;99.90;;;;;;5036987;28;20029;-74
2023/12/12 09:11:14;;;;;;;6.82;0.63;;;11.90;99.90;;;;;;5066574;28;20025;-74
2023/12/12 09:13:44;;;;;;;3.95;2.15;;;11.90;99.90;;;;;;5062783;28;20056;-74
2023/12/12 09:16:10;;;;;;;1.70;0.57;;;11.90;99.90;;;;;;5058674;28;20389;-74
2023/12/12 09:18:36;;;;;;;0.77;0.28;;;11.90;99.90;;;;;;5063627;28;20024;-74
2023/12/12 09:21:02;;;;;;;0.57;0.57;;;12.00;99.90;;;;;;5060911;28;20031;-75
2023/12/12 09:23:28;;;;;;;2.20;1.05;;;12.00;99.90;;;;;;5058942;28;20033;-75
2023/12/12 09:25:55;;;;;;;9.95;2.13;;;12.10;99.90;;;;;;5058041;28;20033;-76
2023/12/12 09:28:22;;;;;;;8.38;1.33;;;12.20;99.90;;;;;;5064317;28;20029;-75
2023/12/12 09:30:48;;;;;;;0.35;0.35;;;12.20;99.90;;;;;;5063298;28;20385;-75
2023/12/12 09:33:13;;;;;;;1.80;1.20;;;12.30;99.90;;;;;;5068462;28;20103;-74
2023/12/12 09:35:39;;;;;;;6.45;1.35;;;12.20;99.90;;;;;;5055534;28;20398;-74
2023/12/12 09:38:05;;;;;;;2.53;1.02;;;12.20;99.90;;;;;;5060608;28;20021;-74
2023/12/12 09:40:34;;;;;;;0.10;0.10;;;12.20;99.90;;;;;;5056764;28;20503;-74
2023/12/12 09:43:03;;;;;;;3.42;1.95;;;12.20;99.90;;;;;;5062772;28;20028;-74
2023/12/12 09:45:31;;;;;;;1.60;1.27;;;12.20;99.90;;;;;;5067551;28;20040;-75
2023/12/12 09:47:58;;;;;;;0.20;0.20;;;12.20;99.90;;;;;;5055389;28;20065;-77
2023/12/12 09:50:26;;;;;;;14.48;2.20;;;12.20;99.90;;;;;;5060716;28;20095;-74
2023/12/12 09:52:54;;;;;;;0.77;0.77;;;12.40;99.90;;;;;;5055202;28;20113;-74
2023/12/12 09:55:23;;;;;;;1.35;1.08;;;12.40;99.90;;;;;;5050328;28;20386;-74
2023/12/12 09:57:49;;;;;;;1.50;1.30;;;12.30;99.90;;;;;;5039828;28;20398;-75
2023/12/12 10:00:18;;;;;;;0.47;0.43;;;12.40;99.90;;;;;;5060499;28;20013;-75
2023/12/12 10:02:44;;;;;;;3.97;2.63;;;12.50;99.90;;;;;;5055383;28;20028;-77
2023/12/12 10:05:12;;;;;;;2.00;1.55;;;12.50;99.90;;;;;;5058264;28;20360;-74
2023/12/12 10:07:40;;;;;;;0.05;0.05;;;12.40;99.90;;;;;;5058585;28;20025;-74
2023/12/12 10:10:11;;;;;;;0.20;0.20;;;12.40;99.90;;;;;;5063601;28;20542;-74
2023/12/12 10:12:37;;;;;;;4.55;0.68;;;12.40;99.90;;;;;;5051026;28;20029;-74
2023/12/12 10:15:20;;;;;;;0.10;0.10;;;12.40;99.90;;;;;;5061573;28;20024;-75
2023/12/12 10:17:47;;;;;;;2.10;1.58;;;12.30;99.90;;;;;;5059774;28;20107;-75
2023/12/12 10:20:13;;;;;;;0.50;0.50;;;12.30;99.90;;;;;;5068929;28;20123;-74
2023/12/12 10:22:39;;;;;;;1.55;0.88;;;12.40;99.90;;;;;;5056257;28;20443;-74
2023/12/12 10:25:11;;;;;;;2.22;1.20;;;12.30;99.90;;;;;;5067213;28;20115;-74
2023/12/12 10:27:44;;;;;;;0.93;0.47;;;12.30;99.90;;;;;;5067408;28;20084;-74
2023/12/12 10:30:13;;;;;;;0.52;0.52;;;12.40;99.90;;;;;;5059229;28;20461;-74
2023/12/12 10:32:40;;;;;;;0.63;0.63;;;12.50;99.90;;;;;;5059704;28;20017;-74
2023/12/12 10:35:06;;;;;;;2.03;1.63;;;12.60;99.90;;;;;;5069312;28;20035;-75
2023/12/12 10:37:33;;;;;;;4.95;1.35;;;12.60;99.90;;;;;;5069765;28;20016;-75
2023/12/12 10:40:21;;;;;;;0.43;0.43;;;12.80;99.90;;;;;;5063671;28;20041;-74
2023/12/12 10:42:51;;;;;;;0.32;0.28;;;12.80;99.90;;;;;;5059043;28;20052;-74
2023/12/12 10:45:20;;;;;;;0.13;0.13;;;12.70;99.90;;;;;;5070243;28;20032;-74
2023/12/12 10:47:50;;;;;;;0.73;0.73;;;12.70;99.90;;;;;;5065161;28;20028;-74
2023/12/12 10:50:20;;;;;;;3.35;1.13;;;12.70;99.90;;;;;;5060678;28;20032;-76
2023/12/12 10:52:48;;;;;;;0.20;0.20;;;12.70;99.90;;;;;;5059329;28;20024;-75
2023/12/12 10:55:16;;;;;;;2.28;1.20;;;12.70;99.90;;;;;;5057854;28;20445;-75
2023/12/12 10:57:44;;;;;;;1.33;1.23;;;12.60;99.90;;;;;;5062049;28;20043;-75
2023/12/12 11:00:17;;;;;;;3.88;1.42;;;12.70;99.90;;;;;;5068217;28;20033;-74
2023/12/12 11:02:45;;;;;;;0.32;0.32;;;12.80;99.90;;;;;;5063969;28;20056;-74
2023/12/12 11:05:12;;;;;;;0.47;0.43;;;12.80;99.90;;;;;;5061786;28;20446;-74
2023/12/12 11:07:40;;;;;;;1.88;1.25;;;12.80;99.90;;;;;;5054549;28;20036;-75
2023/12/12 11:10:11;;;;;;;0.30;0.30;;;12.90;99.90;;;;;;5066677;28;20028;-74
2023/12/12 11:12:48;;;;;;;1.30;0.30;;;13.00;99.90;;;;;;5058663;28;20032;-74
2023/12/12 11:15:15;;;;;;;1.17;0.93;;;13.10;99.90;;;;;;5053685;28;20391;-75
2023/12/12 11:17:41;;;;;;;0.22;0.22;;;13.00;99.90;;;;;;5055947;28;20025;-74
2023/12/12 11:20:17;;;;;;;2.45;0.45;;;13.00;99.90;;;;;;5063455;28;20031;-74
2023/12/12 11:22:46;;;;;;;1.20;1.10;;;13.00;99.90;;;;;;5060829;28;20033;-75
2023/12/12 11:25:19;;;;;;;3.00;1.52;;;13.00;99.90;;;;;;5061396;28;20029;-74
2023/12/12 11:27:53;;;;;;;0.68;0.68;;;13.00;99.90;;;;;;5059430;28;20028;-74
2023/12/12 11:30:20;;;;;;;1.38;1.15;;;13.10;99.90;;;;;;5053840;28;20037;-73
2023/12/12 11:32:47;;;;;;;1.58;1.23;;;13.00;99.90;;;;;;5068582;28;20043;-74
2023/12/12 11:35:29;;;;;;;1.33;0.85;;;13.00;99.90;;;;;;5062358;28;20132;-74
2023/12/12 11:37:56;;;;;;;3.83;0.85;;;13.10;99.90;;;;;;5053976;28;20037;-74
2023/12/12 11:40:25;;;;;;;1.42;1.00;;;13.20;99.90;;;;;;5060245;28;20023;-74
2023/12/12 11:42:54;;;;;;;1.67;0.88;;;13.10;99.90;;;;;;5057491;28;20111;-74
2023/12/12 11:45:33;;;;;;;1.60;1.08;;;13.00;99.90;;;;;;5066610;28;20024;-74
2023/12/12 11:48:00;;;;;;;2.22;1.95;;;13.10;99.90;;;;;;5055396;28;20148;-74
2023/12/12 11:50:26;;;;;;;2.30;1.83;;;13.00;99.90;;;;;;5059955;28;20497;-74
2023/12/12 11:52:53;;;;;;;3.53;0.40;;;13.00;99.90;;;;;;5058581;28;20061;-74
2023/12/12 11:55:21;;;;;;;0.38;0.38;;;13.10;99.90;;;;;;5055894;28;20020;-74
2023/12/12 11:57:47;;;;;;;1.75;1.52;;;13.00;99.90;;;;;;5054014;28;20342;-75
2023/12/12 12:00:14;;;;;;;0.65;0.65;;;13.10;99.90;;;;;;5052815;28;20029;-76
2023/12/12 12:02:40;;;;;;;0.40;0.40;;;13.10;99.90;;;;;;5052318;28;20017;-76
2023/12/12 12:05:07;;;;;;;0.20;0.20;;;13.20;99.90;;;;;;5052416;28;20120;-75
2023/12/12 12:07:33;;;;;;;1.00;0.90;;;13.30;99.90;;;;;;5052960;28;20055;-76
2023/12/12 12:09:59;;;;;;;0.28;0.28;;;13.30;99.90;;;;;;5052656;28;20025;-76
2023/12/12 12:12:25;;;;;;;1.30;1.23;;;13.40;99.90;;;;;;5053832;28;20028;-76
2023/12/12 12:14:51;;;;;;;1.02;0.77;;;13.30;99.90;;;;;;5053832;28;20036;-75
2023/12/12 12:17:18;;;;;;;0.35;0.20;;;13.30;99.90;;;;;;5052922;28;20072;-76
2023/12/12 12:19:44;;;;;;;2.55;1.27;;;13.50;99.90;;;;;;5053575;28;20536;-76
2023/12/12 12:22:12;;;;;;;0.93;0.93;;;13.40;99.90;;;;;;5052422;28;20036;-75
2023/12/12 12:24:47;;;;;;;5.38;0.95;;;13.50;99.90;;;;;;5053885;28;20128;-75
2023/12/12 12:27:14;;;;;;;2.58;0.98;;;13.50;99.90;;;;;;5052695;28;20025;-76
2023/12/12 12:29:41;;;;;;;1.30;0.98;;;13.50;99.90;;;;;;5053951;28;20051;-76
2023/12/12 12:32:10;;;;;;;0.60;0.60;;;13.50;99.90;;;;;;5056764;28;20021;-76
2023/12/12 12:34:36;;;;;;;0.17;0.17;;;13.50;99.90;;;;;;5020161;28;20029;-76
2023/12/12 12:37:02;;;;;;;0.57;0.50;;;13.40;99.90;;;;;;5051763;28;20043;-75
2023/12/12 12:39:28;;;;;;;3.40;2.15;;;13.40;99.90;;;;;;5052857;28;20037;-76
2023/12/12 12:41:55;;;;;;;6.30;0.90;;;13.40;99.90;;;;;;5052957;28;20029;-76
2023/12/12 12:44:21;;;;;;;2.42;1.67;;;13.50;99.90;;;;;;5053146;28;20392;-75
2023/12/12 12:46:51;;;;;;;4.60;2.75;;;13.40;99.90;;;;;;5052266;28;20112;-75